createdAt,value
2019-01-02T00:00:54.369Z,1.5
2019-01-02T00:01:54.949Z,1.46
2019-01-02T00:02:54.331Z,1.37
2019-01-02T00:03:54.369Z,1.44
2019-01-02T00:04:55.724Z,1.39
2019-01-02T00:05:54.343Z,1.49
2019-01-02T00:06:54.258Z,1.35
2019-01-02T00:07:55.807Z,1.29
2019-01-02T00:08:54.282Z,1.34
2019-01-02T00:09:54.266Z,1.29
2019-01-02T00:10:54.541Z,1.17
2019-01-02T00:11:54.381Z,1.16
2019-01-02T00:12:55.590Z,1.17
2019-01-02T00:13:54.289Z,1.12
2019-01-02T00:14:54.457Z,1.2
2019-01-02T00:15:55.713Z,1.13
2019-01-02T00:16:54.260Z,0.99
2019-01-02T00:17:54.652Z,0.98
2019-01-02T00:18:54.266Z,0.99
2019-01-02T00:19:54.637Z,1.01
2019-01-02T00:20:55.731Z,0.97
2019-01-02T00:21:54.763Z,0.92
2019-01-02T00:22:54.305Z,0.99
2019-01-02T00:23:55.295Z,0.88
2019-01-02T00:24:54.297Z,0.93
2019-01-02T00:25:54.270Z,0.87
2019-01-02T00:26:54.296Z,0.72
2019-01-02T00:27:54.227Z,0.73
2019-01-02T00:28:55.641Z,0.83
2019-01-02T00:29:54.298Z,0.8
2019-01-02T00:30:54.407Z,0.79
2019-01-02T00:31:55.302Z,0.66
2019-01-02T00:32:54.494Z,0.7
2019-01-02T00:33:55.695Z,0.73
2019-01-02T00:34:54.502Z,0.59
2019-01-02T00:35:54.419Z,0.55
2019-01-02T00:36:55.817Z,0.54
2019-01-02T00:37:54.415Z,0.49
2019-01-02T00:38:54.233Z,0.47
2019-01-02T00:39:54.207Z,0.22
2019-01-02T00:40:54.378Z,0.37
2019-01-02T00:41:55.572Z,0.28
2019-01-02T00:42:54.207Z,0.26
2019-01-02T00:43:54.221Z,0.3
2019-01-02T00:44:55.639Z,0.3
2019-01-02T00:45:54.226Z,0.23
2019-01-02T00:46:55.595Z,0.24
2019-01-02T00:47:55.038Z,0.29
2019-01-02T00:48:54.304Z,0.27
2019-01-02T00:49:55.531Z,0.24
2019-01-02T00:50:55.061Z,0.23
2019-01-02T00:51:54.401Z,0.34
2019-01-02T00:52:54.558Z,0.18
2019-01-02T00:53:54.337Z,0.12
2019-01-02T00:54:55.826Z,0.14
2019-01-02T00:55:54.195Z,0.22
2019-01-02T00:56:54.576Z,0.32
2019-01-02T00:57:54.223Z,0.25
2019-01-02T00:58:54.373Z,0.21
2019-01-02T00:59:55.593Z,0.29
2019-01-02T01:00:54.233Z,0.24
2019-01-02T01:01:56.290Z,0.13
2019-01-02T01:02:54.211Z,0.23
2019-01-02T01:03:54.192Z,0.26
2019-01-02T01:04:55.260Z,0.19
2019-01-02T01:05:54.284Z,0.19
2019-01-02T01:06:55.483Z,0.19
2019-01-02T01:07:54.195Z,0.27
2019-01-02T01:08:54.300Z,0.26
2019-01-02T01:09:55.375Z,0.3
2019-01-02T01:10:54.229Z,0.37
2019-01-02T01:11:55.604Z,0.32
2019-01-02T01:12:54.192Z,0.37
2019-01-02T01:13:54.212Z,0.43
2019-01-02T01:14:55.318Z,0.51
2019-01-02T01:15:54.171Z,0.46
2019-01-02T01:16:54.950Z,0.45
2019-01-02T01:17:54.290Z,0.52
2019-01-02T01:18:54.234Z,0.48
2019-01-02T01:19:55.728Z,0.51
2019-01-02T01:20:54.231Z,0.49
2019-01-02T01:21:54.202Z,0.48
2019-01-02T01:22:55.395Z,0.56
2019-01-02T01:23:54.175Z,0.56
2019-01-02T01:24:54.172Z,0.51
2019-01-02T01:25:55.122Z,0.49
2019-01-02T01:26:54.152Z,0.49
2019-01-02T01:27:54.171Z,0.39
2019-01-02T01:28:54.312Z,0.47
2019-01-02T01:29:54.278Z,0.48
2019-01-02T01:30:55.951Z,0.45
2019-01-02T01:31:54.598Z,0.4
2019-01-02T01:32:54.220Z,0.43
2019-01-02T01:33:55.317Z,0.45
2019-01-02T01:34:54.235Z,0.36
2019-01-02T01:35:54.226Z,0.29
2019-01-02T01:36:55.649Z,0.41
2019-01-02T01:37:54.990Z,0.43
2019-01-02T01:38:54.365Z,0.38
2019-01-02T01:39:55.753Z,0.37
2019-01-02T01:40:54.488Z,0.34
2019-01-02T01:41:54.286Z,0.35
2019-01-02T01:42:55.330Z,0.24
2019-01-02T01:43:54.244Z,0.24
2019-01-02T01:44:54.217Z,0.04
2019-01-02T01:45:54.988Z,0.07
2019-01-02T01:46:54.528Z,-0.01
2019-01-02T01:47:54.193Z,-0.17
2019-01-02T01:48:54.145Z,-0.13
2019-01-02T01:49:54.122Z,-0.15
2019-01-02T01:50:55.443Z,-0.12
2019-01-02T01:51:54.256Z,-0.25
2019-01-02T01:52:54.448Z,-0.26
2019-01-02T01:53:55.726Z,-0.17
2019-01-02T01:54:54.188Z,-0.11
2019-01-02T01:55:54.387Z,-0.36
2019-01-02T01:56:55.666Z,-0.31
2019-01-02T01:57:54.629Z,-0.29
2019-01-02T01:58:54.152Z,-0.27
2019-01-02T01:59:55.506Z,-0.36
2019-01-02T02:00:54.437Z,-0.27
2019-01-02T02:01:54.709Z,-0.32
2019-01-02T02:02:55.903Z,-0.33
2019-01-02T02:03:54.848Z,-0.31
2019-01-02T02:04:54.385Z,-0.2
2019-01-02T02:05:55.549Z,-0.15
2019-01-02T02:06:54.206Z,-0.1
2019-01-02T02:07:54.251Z,-0.11
2019-01-02T02:08:54.498Z,-0.06
2019-01-02T02:09:54.260Z,-0.03
2019-01-02T02:10:54.600Z,-0.04
2019-01-02T02:11:54.359Z,-0.06
2019-01-02T02:12:54.859Z,-0.1
2019-01-02T02:13:55.210Z,-0.05
2019-01-02T02:14:54.179Z,-0.14
2019-01-02T02:15:54.414Z,-0.2
2019-01-02T02:16:55.601Z,-0.13
2019-01-02T02:17:54.349Z,-0.2
2019-01-02T02:18:54.072Z,-0.12
2019-01-02T02:19:55.169Z,-0.1
2019-01-02T02:20:54.563Z,-0.14
2019-01-02T02:21:54.325Z,-0.1
2019-01-02T02:22:55.402Z,-0.1
2019-01-02T02:23:54.479Z,-0.1
2019-01-02T02:24:54.186Z,-0.07
2019-01-02T02:25:54.149Z,-0.07
2019-01-02T02:26:54.203Z,-0.12
2019-01-02T02:27:55.642Z,-0.12
2019-01-02T02:28:54.106Z,-0.05
2019-01-02T02:29:54.435Z,-0.06
2019-01-02T02:30:55.664Z,-0.13
2019-01-02T02:31:54.068Z,-0.08
2019-01-02T02:32:54.445Z,-0.17
2019-01-02T02:33:55.555Z,-0.12
2019-01-02T02:34:54.188Z,-0.13
2019-01-02T02:35:55.558Z,-0.14
2019-01-02T02:36:55.391Z,-0.16
2019-01-02T02:37:54.323Z,-0.21
2019-01-02T02:38:55.763Z,-0.14
2019-01-02T02:39:54.090Z,-0.14
2019-01-02T02:40:54.300Z,-0.18
2019-01-02T02:41:55.549Z,-0.18
2019-01-02T02:42:56.008Z,-0.17
2019-01-02T02:43:55.433Z,-0.21
2019-01-02T02:44:55.443Z,-0.17
2019-01-02T02:45:56.047Z,-0.18
2019-01-02T02:46:54.095Z,-0.14
2019-01-02T02:47:55.306Z,-0.17
2019-01-02T02:48:55.498Z,-0.11
2019-01-02T02:49:54.138Z,-0.17
2019-01-02T02:50:55.424Z,-0.18
2019-01-02T02:51:54.118Z,-0.2
2019-01-02T02:52:54.277Z,-0.13
2019-01-02T02:53:55.207Z,-0.14
2019-01-02T02:54:54.070Z,-0.19
2019-01-02T02:55:55.173Z,-0.16
2019-01-02T02:56:55.301Z,-0.15
2019-01-02T02:57:54.201Z,-0.12
2019-01-02T02:58:55.158Z,-0.15
2019-01-02T02:59:54.142Z,-0.16
2019-01-02T03:00:55.121Z,-0.22
2019-01-02T03:01:55.415Z,-0.15
2019-01-02T03:02:54.227Z,-0.17
2019-01-02T03:03:55.430Z,-0.26
2019-01-02T03:04:55.796Z,-0.23
2019-01-02T03:05:54.149Z,-0.23
2019-01-02T03:06:56.629Z,-0.22
2019-01-02T03:07:55.626Z,-0.21
2019-01-02T03:08:54.379Z,-0.28
2019-01-02T03:09:55.472Z,-0.28
2019-01-02T03:10:55.621Z,-0.31
2019-01-02T03:11:54.034Z,-0.29
2019-01-02T03:12:55.255Z,-0.28
2019-01-02T03:13:55.192Z,-0.35
2019-01-02T03:14:54.390Z,-0.34
2019-01-02T03:15:55.538Z,-0.29
2019-01-02T03:16:55.552Z,-0.35
2019-01-02T03:17:54.100Z,-0.37
2019-01-02T03:18:55.747Z,-0.4
2019-01-02T03:19:55.458Z,-0.38
2019-01-02T03:20:54.275Z,-0.36
2019-01-02T03:21:55.577Z,-0.38
2019-01-02T03:22:55.799Z,-0.33
2019-01-02T03:23:54.313Z,-0.37
2019-01-02T03:24:55.696Z,-0.36
2019-01-02T03:25:55.445Z,-0.39
2019-01-02T03:26:54.011Z,-0.36
2019-01-02T03:27:55.353Z,-0.37
2019-01-02T03:28:55.323Z,-0.34
2019-01-02T03:29:54.023Z,-0.39
2019-01-02T03:30:55.291Z,-0.45
2019-01-02T03:31:55.581Z,-0.39
2019-01-02T03:32:55.373Z,-0.39
2019-01-02T03:33:54.044Z,-0.38
2019-01-02T03:34:54.018Z,-0.43
2019-01-02T03:35:54.203Z,-0.36
2019-01-02T03:36:53.976Z,-0.32
2019-01-02T03:37:54.187Z,-0.37
2019-01-02T03:38:54.013Z,-0.39
2019-01-02T03:39:54.091Z,-0.37
2019-01-02T03:40:54.048Z,-0.36
2019-01-02T03:41:54.077Z,-0.31
2019-01-02T03:42:53.980Z,-0.32
2019-01-02T03:43:54.134Z,-0.3
2019-01-02T03:44:53.947Z,-0.37
2019-01-02T03:45:54.153Z,-0.34
2019-01-02T03:46:54.080Z,-0.34
2019-01-02T03:47:54.162Z,-0.3
2019-01-02T03:48:54.385Z,-0.28
2019-01-02T03:49:54.368Z,-0.32
2019-01-02T03:50:54.202Z,-0.33
2019-01-02T03:51:54.346Z,-0.34
2019-01-02T03:52:54.694Z,-0.29
2019-01-02T03:53:54.049Z,-0.29
2019-01-02T03:54:54.436Z,-0.33
2019-01-02T03:55:54.768Z,-0.34
2019-01-02T03:56:53.928Z,-0.35
2019-01-02T03:57:54.083Z,-0.33
2019-01-02T03:58:54.530Z,-0.34
2019-01-02T03:59:54.776Z,-0.33
2019-01-02T04:00:53.961Z,-0.32
2019-01-02T04:01:54.070Z,-0.34
2019-01-02T04:02:54.016Z,-0.34
2019-01-02T04:03:54.061Z,-0.35
2019-01-02T04:04:53.909Z,-0.31
2019-01-02T04:05:54.080Z,-0.32
2019-01-02T04:06:53.988Z,-0.31
2019-01-02T04:07:54.158Z,-0.33
2019-01-02T04:08:54.754Z,-0.36
2019-01-02T04:09:54.094Z,-0.34
2019-01-02T04:10:54.065Z,-0.36
2019-01-02T04:11:53.956Z,-0.36
2019-01-02T04:12:54.307Z,-0.33
2019-01-02T04:13:54.123Z,-0.33
2019-01-02T04:14:54.229Z,-0.33
2019-01-02T04:15:54.090Z,-0.34
2019-01-02T04:16:53.922Z,-0.34
2019-01-02T04:17:54.275Z,-0.38
2019-01-02T04:18:54.144Z,-0.38
2019-01-02T04:19:53.945Z,-0.37
2019-01-02T04:20:54.259Z,-0.39
2019-01-02T04:21:54.161Z,-0.38
2019-01-02T04:22:54.019Z,-0.41
2019-01-02T04:23:54.177Z,-0.46
2019-01-02T04:24:54.354Z,-0.43
2019-01-02T04:25:54.262Z,-0.44
2019-01-02T04:26:54.129Z,-0.38
2019-01-02T04:27:54.304Z,-0.38
2019-01-02T04:28:54.041Z,-0.43
2019-01-02T04:29:54.016Z,-0.42
2019-01-02T04:30:53.890Z,-0.44
2019-01-02T04:31:53.910Z,-0.51
2019-01-02T04:32:53.937Z,-0.49
2019-01-02T04:33:54.083Z,-0.49
2019-01-02T04:34:54.021Z,-0.42
2019-01-02T04:35:54.030Z,-0.4
2019-01-02T04:36:53.877Z,-0.43
2019-01-02T04:37:54.055Z,-0.49
2019-01-02T04:38:54.051Z,-0.43
2019-01-02T04:39:54.140Z,-0.43
2019-01-02T04:40:54.228Z,-0.47
2019-01-02T04:41:53.889Z,-0.5
2019-01-02T04:42:53.851Z,-0.53
2019-01-02T04:43:53.873Z,-0.52
2019-01-02T04:44:54.024Z,-0.5
2019-01-02T04:45:53.958Z,-0.56
2019-01-02T04:46:54.042Z,-0.57
2019-01-02T04:47:54.442Z,-0.53
2019-01-02T04:48:53.858Z,-0.58
2019-01-02T04:49:54.121Z,-0.46
2019-01-02T04:50:54.237Z,-0.44
2019-01-02T04:51:54.098Z,-0.49
2019-01-02T04:52:54.352Z,-0.6
2019-01-02T04:53:54.089Z,-0.61
2019-01-02T04:54:54.073Z,-0.61
2019-01-02T04:55:53.905Z,-0.67
2019-01-02T04:56:53.962Z,-0.64
2019-01-02T04:57:54.184Z,-0.66
2019-01-02T04:58:53.883Z,-0.62
2019-01-02T04:59:53.978Z,-0.65
2019-01-02T05:00:54.173Z,-0.6
2019-01-02T05:01:54.247Z,-0.59
2019-01-02T05:02:54.197Z,-0.66
2019-01-02T05:03:54.233Z,-0.65
2019-01-02T05:04:54.513Z,-0.63
2019-01-02T05:05:54.183Z,-0.56
2019-01-02T05:06:54.454Z,-0.59
2019-01-02T05:07:54.497Z,-0.59
2019-01-02T05:08:54.573Z,-0.59
2019-01-02T05:09:54.275Z,-0.64
2019-01-02T05:10:54.011Z,-0.57
2019-01-02T05:11:54.233Z,-0.58
2019-01-02T05:12:54.521Z,-0.69
2019-01-02T05:13:54.676Z,-0.7
2019-01-02T05:14:54.223Z,-0.72
2019-01-02T05:15:54.210Z,-0.71
2019-01-02T05:16:54.099Z,-0.78
2019-01-02T05:17:54.294Z,-0.81
2019-01-02T05:18:53.879Z,-0.83
2019-01-02T05:19:54.075Z,-0.77
2019-01-02T05:20:53.871Z,-0.75
2019-01-02T05:21:54.659Z,-0.85
2019-01-02T05:22:54.077Z,-0.84
2019-01-02T05:23:53.805Z,-0.81
2019-01-02T05:24:54.210Z,-0.8
2019-01-02T05:25:53.844Z,-0.78
2019-01-02T05:26:53.901Z,-0.82
2019-01-02T05:27:54.213Z,-0.85
2019-01-02T05:28:54.370Z,-0.81
2019-01-02T05:29:53.899Z,-0.81
2019-01-02T05:30:53.824Z,-0.77
2019-01-02T05:31:54.299Z,-0.85
2019-01-02T05:32:53.890Z,-0.81
2019-01-02T05:33:54.645Z,-0.84
2019-01-02T05:34:54.075Z,-0.82
2019-01-02T05:35:53.826Z,-0.88
2019-01-02T05:36:53.913Z,-0.85
2019-01-02T05:37:54.270Z,-0.87
2019-01-02T05:38:53.950Z,-0.9
2019-01-02T05:39:53.863Z,-0.89
2019-01-02T05:40:54.648Z,-0.87
2019-01-02T05:41:53.848Z,-0.93
2019-01-02T05:42:54.351Z,-0.84
2019-01-02T05:43:53.768Z,-0.82
2019-01-02T05:44:54.126Z,-0.77
2019-01-02T05:45:54.127Z,-0.77
2019-01-02T05:46:54.211Z,-0.8
2019-01-02T05:47:54.218Z,-0.85
2019-01-02T05:48:53.847Z,-0.87
2019-01-02T05:49:53.836Z,-0.82
2019-01-02T05:50:54.118Z,-0.86
2019-01-02T05:51:53.792Z,-0.84
2019-01-02T05:52:53.871Z,-0.85
2019-01-02T05:53:54.061Z,-0.84
2019-01-02T05:54:54.272Z,-0.83
2019-01-02T05:55:54.453Z,-0.91
2019-01-02T05:56:54.027Z,-0.83
2019-01-02T05:57:54.331Z,-0.87
2019-01-02T05:58:54.470Z,-0.87
2019-01-02T05:59:53.814Z,-0.88
2019-01-02T06:00:54.024Z,-0.87
2019-01-02T06:01:54.612Z,-0.86
2019-01-02T06:02:54.096Z,-0.86
2019-01-02T06:03:53.783Z,-0.87
2019-01-02T06:04:54.057Z,-0.9
2019-01-02T06:05:53.995Z,-0.85
2019-01-02T06:06:53.984Z,-0.86
2019-01-02T06:07:53.936Z,-0.8
2019-01-02T06:08:53.736Z,-0.79
2019-01-02T06:09:53.935Z,-0.9
2019-01-02T06:10:53.817Z,-0.88
2019-01-02T06:11:53.749Z,-0.88
2019-01-02T06:12:53.779Z,-0.89
2019-01-02T06:13:53.789Z,-0.84
2019-01-02T06:14:53.853Z,-0.82
2019-01-02T06:15:53.741Z,-0.89
2019-01-02T06:16:53.781Z,-0.9
2019-01-02T06:17:54.023Z,-0.97
2019-01-02T06:18:53.739Z,-0.94
2019-01-02T06:19:53.764Z,-0.85
2019-01-02T06:20:53.870Z,-0.87
2019-01-02T06:21:53.904Z,-0.86
2019-01-02T06:22:54.133Z,-0.86
2019-01-02T06:23:53.757Z,-0.92
2019-01-02T06:24:53.765Z,-0.9
2019-01-02T06:25:53.742Z,-0.94
2019-01-02T06:26:53.869Z,-0.85
2019-01-02T06:27:53.742Z,-0.85
2019-01-02T06:28:53.725Z,-0.89
2019-01-02T06:29:54.420Z,-0.88
2019-01-02T06:30:54.569Z,-0.93
2019-01-02T06:31:53.737Z,-0.89
2019-01-02T06:32:53.754Z,-0.94
2019-01-02T06:33:53.744Z,-0.94
2019-01-02T06:34:53.804Z,-0.92
2019-01-02T06:35:53.777Z,-0.99
2019-01-02T06:36:53.822Z,-0.92
2019-01-02T06:37:53.928Z,-0.89
2019-01-02T06:38:53.825Z,-0.91
2019-01-02T06:39:53.840Z,-0.96
2019-01-02T06:40:53.864Z,-0.92
2019-01-02T06:41:54.555Z,-0.87
2019-01-02T06:42:53.933Z,-0.9
2019-01-02T06:43:54.007Z,-1.02
2019-01-02T06:44:54.038Z,-0.95
2019-01-02T06:45:53.869Z,-0.95
2019-01-02T06:46:53.806Z,-0.87
2019-01-02T06:47:55.655Z,-0.92
2019-01-02T06:48:53.818Z,-0.91
2019-01-02T06:49:53.796Z,-0.9
2019-01-02T06:50:53.737Z,-1.03
2019-01-02T06:51:54.040Z,-1.01
2019-01-02T06:52:53.997Z,-0.95
2019-01-02T06:53:53.741Z,-0.95
2019-01-02T06:54:53.686Z,-0.99
2019-01-02T06:55:53.721Z,-1.03
2019-01-02T06:56:54.141Z,-0.99
2019-01-02T06:57:54.037Z,-0.99
2019-01-02T06:58:53.929Z,-1
2019-01-02T06:59:53.701Z,-0.96
2019-01-02T07:00:53.761Z,-0.95
2019-01-02T07:01:54.413Z,-1.01
2019-01-02T07:02:53.856Z,-0.96
2019-01-02T07:03:54.194Z,-1.08
2019-01-02T07:04:54.536Z,-1.05
2019-01-02T07:05:54.045Z,-1.02
2019-01-02T07:06:53.680Z,-1
2019-01-02T07:07:53.771Z,-0.93
2019-01-02T07:08:53.860Z,-0.97
2019-01-02T07:09:54.063Z,-0.96
2019-01-02T07:10:53.729Z,-0.95
2019-01-02T07:11:54.037Z,-1.01
2019-01-02T07:12:54.511Z,-0.96
2019-01-02T07:13:53.682Z,-1.01
2019-01-02T07:14:53.651Z,-0.99
2019-01-02T07:15:54.162Z,-0.92
2019-01-02T07:16:54.132Z,-0.91
2019-01-02T07:17:54.373Z,-1
2019-01-02T07:18:54.210Z,-0.96
2019-01-02T07:19:53.700Z,-1
2019-01-02T07:20:54.101Z,-0.94
2019-01-02T07:21:53.829Z,-0.95
2019-01-02T07:22:53.744Z,-0.94
2019-01-02T07:23:53.846Z,-0.98
2019-01-02T07:24:54.170Z,-1.01
2019-01-02T07:25:54.519Z,-0.94
2019-01-02T07:26:54.135Z,-1.01
2019-01-02T07:27:53.657Z,-0.96
2019-01-02T07:28:53.876Z,-0.92
2019-01-02T07:29:53.743Z,-0.91
2019-01-02T07:30:53.848Z,-0.86
2019-01-02T07:31:53.904Z,-0.96
2019-01-02T07:32:54.526Z,-0.94
2019-01-02T07:33:54.159Z,-0.89
2019-01-02T07:34:53.729Z,-0.93
2019-01-02T07:35:54.109Z,-0.89
2019-01-02T07:36:53.917Z,-0.95
2019-01-02T07:37:53.949Z,-0.91
2019-01-02T07:38:53.753Z,-0.85
2019-01-02T07:39:53.634Z,-0.91
2019-01-02T07:40:53.741Z,-0.92
2019-01-02T07:41:53.760Z,-0.97
2019-01-02T07:42:54.054Z,-0.92
2019-01-02T07:43:53.630Z,-0.87
2019-01-02T07:44:53.836Z,-0.88
2019-01-02T07:45:53.895Z,-0.87
2019-01-02T07:46:54.401Z,-0.89
2019-01-02T07:47:54.217Z,-0.93
2019-01-02T07:48:53.723Z,-0.92
2019-01-02T07:49:53.757Z,-0.92
2019-01-02T07:50:53.602Z,-0.88
2019-01-02T07:51:53.818Z,-0.9
2019-01-02T07:52:53.687Z,-0.88
2019-01-02T07:53:53.520Z,-0.91
2019-01-02T07:54:53.703Z,-0.86
2019-01-02T07:55:53.611Z,-0.84
2019-01-02T07:56:53.716Z,-0.83
2019-01-02T07:57:53.609Z,-0.81
2019-01-02T07:58:53.682Z,-0.79
2019-01-02T07:59:53.680Z,-0.8
2019-01-02T08:00:54.242Z,-0.79
2019-01-02T08:01:53.688Z,-0.85
2019-01-02T08:02:53.691Z,-0.82
2019-01-02T08:03:53.636Z,-0.8
2019-01-02T08:04:53.808Z,-0.82
2019-01-02T08:05:53.684Z,-0.81
2019-01-02T08:06:53.619Z,-0.77
2019-01-02T08:07:53.748Z,-0.77
2019-01-02T08:08:53.665Z,-0.75
2019-01-02T08:09:54.147Z,-0.8
2019-01-02T08:10:53.898Z,-0.8
2019-01-02T08:11:54.165Z,-0.79
2019-01-02T08:12:53.749Z,-0.77
2019-01-02T08:13:53.837Z,-0.8
2019-01-02T08:14:53.740Z,-0.79
2019-01-02T08:15:54.109Z,-0.69
2019-01-02T08:16:54.103Z,-0.77
2019-01-02T08:17:54.121Z,-0.72
2019-01-02T08:18:53.861Z,-0.76
2019-01-02T08:19:54.456Z,-0.71
2019-01-02T08:20:53.914Z,-0.76
2019-01-02T08:21:53.590Z,-0.72
2019-01-02T08:22:54.326Z,-0.67
2019-01-02T08:23:54.407Z,-0.71
2019-01-02T08:24:54.479Z,-0.67
2019-01-02T08:25:53.830Z,-0.73
2019-01-02T08:26:53.950Z,-0.68
2019-01-02T08:27:54.103Z,-0.6
2019-01-02T08:28:54.430Z,-0.58
2019-01-02T08:29:53.977Z,-0.56
2019-01-02T08:30:54.073Z,-0.5
2019-01-02T08:31:53.679Z,-0.53
2019-01-02T08:32:53.717Z,-0.5
2019-01-02T08:33:53.653Z,-0.49
2019-01-02T08:34:53.662Z,-0.45
2019-01-02T08:35:53.982Z,-0.43
2019-01-02T08:36:53.747Z,-0.41
2019-01-02T08:37:54.390Z,-0.4
2019-01-02T08:38:53.622Z,-0.35
2019-01-02T08:39:53.824Z,-0.34
2019-01-02T08:40:53.908Z,-0.36
2019-01-02T08:41:54.109Z,-0.4
2019-01-02T08:42:54.069Z,-0.35
2019-01-02T08:43:54.278Z,-0.3
2019-01-02T08:44:53.801Z,-0.29
2019-01-02T08:45:54.425Z,-0.27
2019-01-02T08:46:53.563Z,-0.24
2019-01-02T08:47:53.553Z,-0.27
2019-01-02T08:48:54.146Z,-0.26
2019-01-02T08:49:54.143Z,-0.21
2019-01-02T08:50:53.644Z,-0.2
2019-01-02T08:51:53.580Z,-0.24
2019-01-02T08:52:53.552Z,-0.19
2019-01-02T08:53:53.596Z,-0.19
2019-01-02T08:54:53.945Z,-0.16
2019-01-02T08:55:53.562Z,-0.14
2019-01-02T08:56:53.579Z,-0.1
2019-01-02T08:57:53.977Z,-0.05
2019-01-02T08:58:53.622Z,-0.09
2019-01-02T08:59:53.536Z,-0.05
2019-01-02T09:00:54.044Z,-0.09
2019-01-02T09:01:53.532Z,-0.07
2019-01-02T09:02:53.557Z,-0.04
2019-01-02T09:03:53.733Z,-0.08
2019-01-02T09:04:53.979Z,-0.03
2019-01-02T09:05:54.115Z,-0.05
2019-01-02T09:06:53.738Z,-0.05
2019-01-02T09:07:53.896Z,-0.1
2019-01-02T09:08:53.531Z,-0.06
2019-01-02T09:09:53.805Z,-0.01
2019-01-02T09:10:53.519Z,-0.03
2019-01-02T09:11:53.609Z,-0.03
2019-01-02T09:12:53.935Z,-0.03
2019-01-02T09:13:53.535Z,-0.04
2019-01-02T09:14:53.973Z,-0.09
2019-01-02T09:15:53.715Z,-0.06
2019-01-02T09:16:53.967Z,-0.04
2019-01-02T09:17:53.508Z,-0.02
2019-01-02T09:18:53.978Z,-0.12
2019-01-02T09:19:53.876Z,-0.12
2019-01-02T09:20:53.769Z,-0.16
2019-01-02T09:21:53.716Z,-0.14
2019-01-02T09:22:54.336Z,-0.18
2019-01-02T09:23:53.701Z,-0.13
2019-01-02T09:24:53.738Z,-0.06
2019-01-02T09:25:53.882Z,-0.12
2019-01-02T09:26:53.650Z,-0.06
2019-01-02T09:27:53.714Z,-0.07
2019-01-02T09:28:53.839Z,-0.05
2019-01-02T09:29:53.767Z,-0.02
2019-01-02T09:30:53.659Z,-0.05
2019-01-02T09:31:53.468Z,-0.08
2019-01-02T09:32:53.619Z,-0.05
2019-01-02T09:33:53.581Z,-0.05
2019-01-02T09:34:53.621Z,-0.04
2019-01-02T09:35:54.110Z,-0.01
2019-01-02T09:36:53.548Z,0.01
2019-01-02T09:37:54.553Z,0.02
2019-01-02T09:38:53.479Z,0.03
2019-01-02T09:39:53.660Z,0.04
2019-01-02T09:40:53.720Z,0.04
2019-01-02T09:41:53.461Z,0.1
2019-01-02T09:42:53.570Z,0.1
2019-01-02T09:43:53.680Z,0.12
2019-01-02T09:44:53.528Z,0.11
2019-01-02T09:45:53.478Z,0.14
2019-01-02T09:46:54.155Z,0.24
2019-01-02T09:47:53.602Z,0.22
2019-01-02T09:48:53.536Z,0.2
2019-01-02T09:49:53.497Z,0.18
2019-01-02T09:50:53.604Z,0.21
2019-01-02T09:51:54.064Z,0.22
2019-01-02T09:52:53.513Z,0.22
2019-01-02T09:53:53.606Z,0.21
2019-01-02T09:54:53.648Z,0.24
2019-01-02T09:55:53.532Z,0.23
2019-01-02T09:56:53.996Z,0.24
2019-01-02T09:57:53.640Z,0.23
2019-01-02T09:58:53.504Z,0.24
2019-01-02T09:59:53.592Z,0.27
2019-01-02T10:00:53.669Z,0.28
2019-01-02T10:01:54.157Z,0.31
2019-01-02T10:02:53.635Z,0.28
2019-01-02T10:03:54.559Z,0.29
2019-01-02T10:04:54.019Z,0.29
2019-01-02T10:05:53.772Z,0.29
2019-01-02T10:06:53.733Z,0.26
2019-01-02T10:07:53.653Z,0.28
2019-01-02T10:08:53.866Z,0.2
2019-01-02T10:09:53.831Z,0.23
2019-01-02T10:10:53.784Z,0.25
2019-01-02T10:11:53.500Z,0.36
2019-01-02T10:12:53.719Z,0.34
2019-01-02T10:13:53.470Z,0.24
2019-01-02T10:14:53.742Z,0.26
2019-01-02T10:15:53.747Z,0.15
2019-01-02T10:16:53.654Z,0.15
2019-01-02T10:17:54.710Z,0.18
2019-01-02T10:18:53.944Z,0.21
2019-01-02T10:19:53.861Z,0.26
2019-01-02T10:20:53.516Z,0.28
2019-01-02T10:21:53.575Z,0.23
2019-01-02T10:22:53.625Z,0.26
2019-01-02T10:23:53.528Z,0.31
2019-01-02T10:24:53.607Z,0.28
2019-01-02T10:25:53.826Z,0.26
2019-01-02T10:26:53.793Z,0.28
2019-01-02T10:27:54.272Z,0.25
2019-01-02T10:28:53.485Z,0.26
2019-01-02T10:29:53.642Z,0.25
2019-01-02T10:30:53.674Z,0.26
2019-01-02T10:31:53.544Z,0.18
2019-01-02T10:32:53.614Z,0.22
2019-01-02T10:33:53.672Z,0.27
2019-01-02T10:34:54.247Z,0.31
2019-01-02T10:35:53.651Z,0.31
2019-01-02T10:36:53.472Z,0.31
2019-01-02T10:37:55.783Z,0.24
2019-01-02T10:38:53.861Z,0.3
2019-01-02T10:39:53.998Z,0.37
2019-01-02T10:40:53.548Z,0.33
2019-01-02T10:41:53.793Z,0.25
2019-01-02T10:42:53.665Z,0.18
2019-01-02T10:43:53.526Z,0.16
2019-01-02T10:44:53.495Z,0.23
2019-01-02T10:45:53.406Z,0.17
2019-01-02T10:46:53.576Z,0.13
2019-01-02T10:47:53.736Z,0.18
2019-01-02T10:48:53.680Z,0.19
2019-01-02T10:49:53.865Z,0.12
2019-01-02T10:50:53.545Z,0.13
2019-01-02T10:51:53.817Z,0.13
2019-01-02T10:52:53.605Z,0.23
2019-01-02T10:53:54.211Z,0.18
2019-01-02T10:54:53.673Z,0.22
2019-01-02T10:55:53.537Z,0.21
2019-01-02T10:56:56.025Z,0.24
2019-01-02T10:57:53.606Z,0.19
2019-01-02T10:58:54.231Z,0.14
2019-01-02T10:59:53.440Z,0.18
2019-01-02T11:00:53.564Z,0.19
2019-01-02T11:01:54.227Z,0.1
2019-01-02T11:02:53.636Z,0.19
2019-01-02T11:03:53.672Z,0.11
2019-01-02T11:04:53.528Z,0.12
2019-01-02T11:05:53.610Z,0.07
2019-01-02T11:06:53.385Z,0.1
2019-01-02T11:07:53.628Z,0.18
2019-01-02T11:08:53.536Z,0.21
2019-01-02T11:09:53.825Z,0.15
2019-01-02T11:10:53.409Z,0.05
2019-01-02T11:11:53.339Z,0.27
2019-01-02T11:12:53.482Z,0.29
2019-01-02T11:13:53.433Z,0.21
2019-01-02T11:14:53.420Z,0.27
2019-01-02T11:15:53.479Z,0.08
2019-01-02T11:16:53.418Z,0.12
2019-01-02T11:17:53.394Z,0.2
2019-01-02T11:18:54.113Z,0.09
2019-01-02T11:19:53.682Z,0.12
2019-01-02T11:20:53.635Z,0.05
2019-01-02T11:21:53.440Z,0.17
2019-01-02T11:22:53.393Z,0.06
2019-01-02T11:23:53.305Z,0.13
2019-01-02T11:24:53.528Z,0.15
2019-01-02T11:25:53.465Z,0.18
2019-01-02T11:26:53.374Z,0.26
2019-01-02T11:27:53.452Z,0.2
2019-01-02T11:28:53.445Z,0.13
2019-01-02T11:29:53.501Z,0.04
2019-01-02T11:30:53.347Z,0.03
2019-01-02T11:31:53.500Z,-0.01
2019-01-02T11:32:53.422Z,0.14
2019-01-02T11:33:53.631Z,0
2019-01-02T11:34:53.546Z,0.07
2019-01-02T11:35:53.363Z,-0.11
2019-01-02T11:36:53.458Z,-0.15
2019-01-02T11:37:53.388Z,-0.15
2019-01-02T11:38:53.560Z,-0.25
2019-01-02T11:39:53.636Z,-0.27
2019-01-02T11:40:53.528Z,-0.39
2019-01-02T11:41:54.633Z,-0.33
2019-01-02T11:42:53.553Z,-0.4
2019-01-02T11:43:53.713Z,-0.34
2019-01-02T11:44:53.453Z,-0.28
2019-01-02T11:45:53.445Z,-0.25
2019-01-02T11:46:53.616Z,-0.18
2019-01-02T11:47:53.419Z,-0.11
2019-01-02T11:48:53.425Z,-0.19
2019-01-02T11:49:53.417Z,-0.17
2019-01-02T11:50:54.131Z,-0.17
2019-01-02T11:51:53.400Z,-0.01
2019-01-02T11:52:53.480Z,0.05
2019-01-02T11:53:53.414Z,0.06
2019-01-02T11:54:54.531Z,0.14
2019-01-02T11:55:53.343Z,0.17
2019-01-02T11:56:53.746Z,0.25
2019-01-02T11:57:53.463Z,0.2
2019-01-02T11:58:53.415Z,0.02
2019-01-02T11:59:53.510Z,0.12
2019-01-02T12:00:53.652Z,0.19
2019-01-02T12:01:53.340Z,0.16
2019-01-02T12:02:53.692Z,0.27
2019-01-02T12:03:53.734Z,0.2
2019-01-02T12:04:53.421Z,0.31
2019-01-02T12:05:53.343Z,0.29
2019-01-02T12:06:53.488Z,0.31
2019-01-02T12:07:53.537Z,0.33
2019-01-02T12:08:53.470Z,0.31
2019-01-02T12:09:53.286Z,0.4
2019-01-02T12:10:53.319Z,0.4
2019-01-02T12:11:53.293Z,0.42
2019-01-02T12:12:53.283Z,0.45
2019-01-02T12:13:53.580Z,0.48
2019-01-02T12:14:53.436Z,0.46
2019-01-02T12:15:53.572Z,0.5
2019-01-02T12:16:53.402Z,0.52
2019-01-02T12:17:53.603Z,0.47
2019-01-02T12:18:54.075Z,0.55
2019-01-02T12:19:53.576Z,0.53
2019-01-02T12:20:54.397Z,0.53
2019-01-02T12:21:53.361Z,0.55
2019-01-02T12:22:53.291Z,0.54
2019-01-02T12:23:53.481Z,0.52
2019-01-02T12:24:53.806Z,0.51
2019-01-02T12:25:53.988Z,0.64
2019-01-02T12:26:53.740Z,0.61
2019-01-02T12:27:53.528Z,0.6
2019-01-02T12:28:53.727Z,0.59
2019-01-02T12:29:53.657Z,0.65
2019-01-02T12:30:53.561Z,0.61
2019-01-02T12:31:53.325Z,0.63
2019-01-02T12:32:53.435Z,0.66
2019-01-02T12:33:53.700Z,0.79
2019-01-02T12:34:53.410Z,0.55
2019-01-02T12:35:53.854Z,0.67
2019-01-02T12:36:53.664Z,0.65
2019-01-02T12:37:53.751Z,0.63
2019-01-02T12:38:53.331Z,0.57
2019-01-02T12:39:53.393Z,0.55
2019-01-02T12:40:53.441Z,0.7
2019-01-02T12:41:53.507Z,0.59
2019-01-02T12:42:53.595Z,0.5
2019-01-02T12:43:53.419Z,0.21
2019-01-02T12:44:53.527Z,0.1
2019-01-02T12:45:53.843Z,-0.1
2019-01-02T12:46:54.104Z,-0.05
2019-01-02T12:47:53.571Z,0.02
2019-01-02T12:48:53.900Z,-0.1
2019-01-02T12:49:53.258Z,0.08
2019-01-02T12:50:53.246Z,0.01
2019-01-02T12:51:53.730Z,-0.12
2019-01-02T12:52:53.401Z,-0.15
2019-01-02T12:53:53.317Z,-0.06
2019-01-02T12:54:53.651Z,0.05
2019-01-02T12:55:53.340Z,0.09
2019-01-02T12:56:53.326Z,0.05
2019-01-02T12:57:53.262Z,0.04
2019-01-02T12:58:53.786Z,-0.06
2019-01-02T12:59:53.550Z,-0.76
2019-01-02T13:00:53.322Z,-0.72
2019-01-02T13:01:53.227Z,-0.5
2019-01-02T13:02:53.364Z,-0.28
2019-01-02T13:03:53.260Z,-0.23
2019-01-02T13:04:53.463Z,-0.27